Time;durP1;ratioP1;P1;durP2;ratioP2;P2;SDS_P1;SDS_P2;PMS_P1;PMS_P2;Temp;Humidity;BMP_temperature;BMP_pressure;BME280_temperature;BME280_humidity;BME280_pressure;Samples;Min_cycle;Max_cycle;Signal;HPM_P1;HPM_P2
2021/06/04 00:01:43;;;;;;;8.60;3.70;;;;;;;16.00;58.08;101021.27;1716607;81;20929;-50
2021/06/04 00:08:11;;;;;;;7.75;3.72;;;;;;;15.94;59.62;101016.34;1719926;81;21008;-54
2021/06/04 00:10:42;;;;;;;4.97;3.08;;;;;;;15.90;61.08;101021.56;1723416;82;21034;-49
2021/06/04 00:13:25;;;;;;;8.63;3.62;;;;;;;15.87;61.78;101023.13;1727060;81;21015;-50
2021/06/04 00:16:26;;;;;;;5.83;3.20;;;;;;;15.84;62.11;101020.67;1705846;81;20972;-49
2021/06/04 00:18:54;;;;;;;4.40;2.85;;;;;;;15.84;61.99;101022.02;1728199;81;20963;-47
2021/06/04 00:21:27;;;;;;;6.42;3.60;;;;;;;15.87;61.45;101021.30;1723465;82;21003;-51
2021/06/04 00:23:58;;;;;;;6.25;3.62;;;;;;;15.90;61.52;101013.03;1727539;81;20956;-48
2021/06/04 00:26:25;;;;;;;5.70;3.85;;;;;;;15.90;61.11;101018.41;1728926;81;20988;-48
2021/06/04 00:28:54;;;;;;;11.50;4.15;;;;;;;15.89;60.74;101016.67;1725012;82;21892;-49
2021/06/04 00:31:21;;;;;;;4.55;3.27;;;;;;;15.89;60.55;101011.30;1730609;82;20996;-48
2021/06/04 00:33:49;;;;;;;10.15;4.17;;;;;;;15.88;60.49;101016.31;1729468;81;21503;-48
2021/06/04 00:36:18;;;;;;;5.05;3.10;;;;;;;15.87;60.50;101013.72;1733601;81;21527;-48
2021/06/04 00:38:47;;;;;;;4.33;3.10;;;;;;;15.85;60.70;101010.28;1730193;81;21486;-55
2021/06/04 00:41:29;;;;;;;6.45;3.72;;;;;;;15.85;60.82;101015.66;1715557;81;20972;-50
2021/06/04 00:43:59;;;;;;;4.50;3.17;;;;;;;15.84;61.00;101006.73;1731109;81;21679;-52
2021/06/04 00:46:27;;;;;;;4.17;3.40;;;;;;;15.87;61.06;101007.85;1734803;81;21436;-58
2021/06/04 00:48:56;;;;;;;5.42;3.33;;;;;;;15.91;61.46;101011.20;1722478;82;20993;-55
2021/06/04 00:51:41;;;;;;;7.22;3.58;;;;;;;15.92;62.31;101010.22;1725194;81;20939;-57
2021/06/04 00:54:10;;;;;;;5.85;3.62;;;;;;;15.93;62.80;101010.61;1729745;81;21024;-53
2021/06/04 00:56:38;;;;;;;4.72;3.60;;;;;;;15.93;63.22;101010.61;1724101;81;21014;-54
2021/06/04 00:59:07;;;;;;;5.90;3.75;;;;;;;15.93;63.52;101010.61;1711646;82;20933;-51
2021/06/04 01:01:36;;;;;;;4.20;3.22;;;;;;;15.95;63.75;101012.67;1733009;81;20960;-52
2021/06/04 01:04:11;;;;;;;5.85;4.00;;;;;;;15.93;64.06;101013.30;1723610;81;20976;-57
2021/06/04 01:07:07;;;;;;;5.17;4.60;;;;;;;15.90;64.56;101014.38;1731670;81;21963;-54
2021/06/04 01:09:42;;;;;;;6.67;3.58;;;;;;;15.87;64.58;101013.72;1733528;81;20928;-56
2021/06/04 01:12:19;;;;;;;4.05;3.20;;;;;;;15.83;64.15;101020.31;1733704;81;20948;-51
2021/06/04 01:15:13;;;;;;;5.42;3.25;;;;;;;15.82;64.01;101013.19;1687485;82;20964;-50
2021/06/04 01:18:17;;;;;;;7.83;3.17;;;;;;;15.79;63.99;101023.69;1710811;82;20988;-46
2021/06/04 01:20:56;;;;;;;5.35;3.40;;;;;;;15.73;64.15;101017.42;1711755;82;20944;-49
2021/06/04 01:23:54;;;;;;;8.33;3.42;;;;;;;15.68;64.50;101017.70;1711008;82;21479;-46
2021/06/04 01:26:30;;;;;;;6.72;3.85;;;;;;;15.68;64.67;101019.05;1707797;82;21031;-46
2021/06/04 01:29:05;;;;;;;4.65;3.10;;;;;;;15.62;64.83;101019.47;1712066;82;20960;-50
2021/06/04 01:31:48;;;;;;;6.60;3.33;;;;;;;15.59;65.08;101020.55;1705305;82;20976;-49
2021/06/04 01:34:24;;;;;;;6.15;3.15;;;;;;;15.57;64.84;101024.31;1717540;82;20979;-50
2021/06/04 01:37:01;;;;;;;8.25;4.03;;;;;;;15.59;65.23;101025.08;1714594;82;21749;-47
2021/06/04 01:39:33;;;;;;;7.28;3.55;;;;;;;15.55;65.44;101017.72;1719165;82;21734;-56
2021/06/04 01:42:01;;;;;;;4.53;3.20;;;;;;;15.51;65.83;101019.39;1720681;82;20948;-48
2021/06/04 01:44:43;;;;;;;7.05;3.90;;;;;;;15.48;65.60;101022.30;1719929;82;20940;-52
2021/06/04 01:47:13;;;;;;;6.33;3.52;;;;;;;15.45;65.25;101023.87;1692814;83;20968;-52
2021/06/04 01:49:45;;;;;;;4.95;3.25;;;;;;;15.44;64.37;101024.33;1694629;83;21500;-50
2021/06/04 01:52:22;;;;;;;5.33;3.42;;;;;;;15.43;64.11;101021.28;1697830;83;20972;-51
2021/06/04 01:54:59;;;;;;;7.72;3.90;;;;;;;15.43;63.87;101024.45;1716018;82;21059;-47
2021/06/04 01:57:40;;;;;;;5.15;3.00;;;;;;;15.46;63.78;101022.89;1709834;82;21003;-50
2021/06/04 02:00:15;;;;;;;8.30;4.97;;;;;;;15.48;63.60;101023.64;1713611;82;20932;-50
2021/06/04 02:02:45;;;;;;;6.55;3.85;;;;;;;15.51;63.58;101022.93;1717615;82;20948;-45
2021/06/04 02:05:16;;;;;;;5.80;3.77;;;;;;;15.51;63.58;101028.80;1717197;82;20960;-45
2021/06/04 02:07:43;;;;;;;6.50;3.67;;;;;;;15.51;63.05;101024.77;1712527;82;21031;-46
2021/06/04 02:10:16;;;;;;;4.95;3.42;;;;;;;15.51;62.55;101020.73;1709205;83;20956;-44
2021/06/04 02:12:48;;;;;;;5.22;3.70;;;;;;;15.51;61.98;101028.30;1708367;82;20948;-44
2021/06/04 02:15:24;;;;;;;12.13;3.55;;;;;;;15.51;61.53;101020.73;1693972;82;20949;-44
2021/06/04 02:18:22;;;;;;;4.35;3.15;;;;;;;15.52;61.27;101017.06;1720645;81;20948;-55
2021/06/04 02:21:02;;;;;;;10.38;3.92;;;;;;;15.53;61.28;101021.00;1723881;81;20995;-60
2021/06/04 02:23:44;;;;;;;7.23;3.00;;;;;;;15.56;61.64;101022.61;1716695;81;21433;-58
2021/06/04 02:26:44;;;;;;;5.20;3.67;;;;;;;15.56;61.87;101023.95;1720599;82;20960;-50
2021/06/04 02:29:20;;;;;;;6.90;4.45;;;;;;;15.53;61.89;101024.18;1708493;82;20990;-51
2021/06/04 02:31:51;;;;;;;3.67;3.12;;;;;;;15.50;61.29;101024.41;1722166;81;21467;-47
2021/06/04 02:34:26;;;;;;;6.62;3.45;;;;;;;15.50;61.23;101015.85;1719641;81;20960;-51
2021/06/04 02:36:57;;;;;;;5.85;4.40;;;;;;;15.50;61.20;101017.69;1720180;81;20976;-48
2021/06/04 02:39:34;;;;;;;6.30;3.15;;;;;;;15.50;61.43;101021.72;1728892;81;20952;-48
2021/06/04 02:42:17;;;;;;;4.85;3.50;;;;;;;15.49;61.17;101019.48;1731005;81;20979;-51
2021/06/04 02:44:57;;;;;;;8.70;3.37;;;;;;;15.48;61.12;101027.67;1720295;81;20984;-52
2021/06/04 02:47:35;;;;;;;4.78;3.12;;;;;;;15.45;61.30;101023.87;1716507;81;20940;-53
2021/06/04 02:50:13;;;;;;;6.92;3.62;;;;;;;15.44;61.23;101033.73;1723077;81;20985;-53
2021/06/04 02:52:42;;;;;;;5.72;2.92;;;;;;;15.46;61.07;101030.95;1714689;81;20977;-45
2021/06/04 02:55:17;;;;;;;4.65;3.02;;;;;;;15.47;61.10;101025.94;1721839;81;21557;-46
2021/06/04 02:57:46;;;;;;;4.70;2.87;;;;;;;15.46;61.12;101030.46;1696877;82;20964;-49
2021/06/04 03:00:28;;;;;;;5.08;2.72;;;;;;;15.49;61.04;101034.76;1724583;81;20949;-49
2021/06/04 03:02:55;;;;;;;5.55;3.22;;;;;;;15.50;60.91;101035.16;1720285;81;21000;-52
2021/06/04 03:05:27;;;;;;;7.50;3.08;;;;;;;15.52;60.66;101036.77;1722519;81;20969;-51
2021/06/04 03:07:54;;;;;;;4.53;3.00;;;;;;;15.53;60.58;101042.50;1731059;81;20949;-50
2021/06/04 03:13:19;;;;;;;5.00;3.15;;;;;;;15.54;60.96;101033.95;1800762;78;23022;-51
2021/06/04 03:15:52;;;;;;;6.12;3.45;;;;;;;15.49;61.17;101036.10;1772905;78;20983;-51
2021/06/04 03:18:27;;;;;;;7.95;4.25;;;;;;;15.50;61.24;101034.66;1795737;78;20948;-50
2021/06/04 03:20:56;;;;;;;5.78;3.37;;;;;;;15.53;61.06;101037.13;1805357;78;20939;-49
2021/06/04 03:23:35;;;;;;;4.67;2.70;;;;;;;15.58;60.82;101033.63;1798065;78;20971;-57
2021/06/04 03:25:57;;;;;;;4.92;3.30;;;;;;;15.62;60.76;101036.09;1795913;78;21510;-61
2021/06/04 03:28:25;;;;;;;4.53;3.10;;;;;;;15.62;60.63;101036.95;1805796;78;20967;-49
2021/06/04 03:30:52;;;;;;;6.85;3.33;;;;;;;15.62;60.57;101035.60;1804542;78;20991;-48
2021/06/04 03:33:24;;;;;;;3.83;3.25;;;;;;;15.60;60.24;101033.53;1802213;78;21015;-48
2021/06/04 03:35:52;;;;;;;4.45;3.05;;;;;;;15.60;60.17;101032.19;1771554;78;20951;-47
2021/06/04 03:38:20;;;;;;;5.47;3.27;;;;;;;15.59;59.98;101035.33;1761651;79;20960;-47
2021/06/04 03:40:49;;;;;;;3.77;2.92;;;;;;;15.62;59.99;101036.95;1740895;81;20957;-44
2021/06/04 03:43:19;;;;;;;4.22;3.10;;;;;;;15.66;59.89;101036.27;1770072;80;21446;-46
2021/06/04 03:45:47;;;;;;;5.05;2.90;;;;;;;15.68;59.54;101043.25;1736411;81;21019;-46
2021/06/04 03:48:18;;;;;;;5.47;3.72;;;;;;;15.69;59.29;101044.10;1735447;80;20988;-45
2021/06/04 03:50:48;;;;;;;6.70;3.87;;;;;;;15.68;59.54;101037.02;1740676;80;21051;-45
2021/06/04 03:53:14;;;;;;;6.72;3.30;;;;;;;15.67;59.67;101038.82;1755356;80;22005;-47
2021/06/04 03:55:42;;;;;;;4.17;2.77;;;;;;;15.70;59.46;101040.01;1735116;80;20991;-46
2021/06/04 03:58:08;;;;;;;4.80;2.90;;;;;;;15.70;59.82;101034.63;1721758;81;21038;-48
2021/06/04 04:00:43;;;;;;;7.55;2.95;;;;;;;15.73;59.90;101035.75;1734785;80;20954;-54
2021/06/04 04:03:11;;;;;;;4.97;2.80;;;;;;;15.77;60.17;101031.88;1732831;80;21007;-45
2021/06/04 04:05:38;;;;;;;7.08;2.55;;;;;;;15.82;60.28;101034.70;1735735;80;20998;-50
2021/06/04 04:08:05;;;;;;;4.35;3.25;;;;;;;15.86;60.48;101042.45;1700522;81;21027;-49
2021/06/04 04:10:31;;;;;;;6.08;2.90;;;;;;;15.90;60.65;101041.27;1724361;81;21037;-53
2021/06/04 04:12:58;;;;;;;3.77;2.95;;;;;;;15.91;60.91;101038.94;1724438;81;21077;-52
2021/06/04 04:15:26;;;;;;;3.37;2.83;;;;;;;15.91;60.95;101034.05;1727346;80;21411;-52
2021/06/04 04:17:54;;;;;;;7.00;3.20;;;;;;;15.95;60.77;101038.22;1736058;80;21022;-57
2021/06/04 04:20:27;;;;;;;5.45;4.12;;;;;;;15.98;60.82;101030.81;1745008;80;21006;-49
2021/06/04 04:22:55;;;;;;;5.75;3.15;;;;;;;16.01;60.23;101031.92;1744494;80;20970;-48
2021/06/04 04:25:26;;;;;;;4.72;3.25;;;;;;;16.05;60.37;101031.70;1746299;80;21291;-53
2021/06/04 04:27:52;;;;;;;4.92;3.10;;;;;;;16.08;60.37;101034.19;1756244;81;21114;-47
2021/06/04 04:30:19;;;;;;;4.53;3.00;;;;;;;16.12;60.49;101043.23;1713052;82;21522;-45
2021/06/04 04:32:47;;;;;;;6.35;3.90;;;;;;;16.16;59.91;101035.82;1745123;80;21617;-45
2021/06/04 04:35:19;;;;;;;9.30;3.37;;;;;;;16.20;59.41;101042.67;1684438;83;21006;-47
2021/06/04 04:37:45;;;;;;;4.67;3.30;;;;;;;16.22;58.57;101040.25;1707150;81;20984;-45
2021/06/04 04:40:13;;;;;;;5.58;3.50;;;;;;;16.27;58.15;101039.06;1704716;82;20995;-47
2021/06/04 04:42:40;;;;;;;5.58;3.67;;;;;;;16.30;58.25;101038.83;1713146;82;20976;-49
2021/06/04 04:45:10;;;;;;;5.40;3.50;;;;;;;16.35;58.37;101046.08;1715076;81;20999;-52
2021/06/04 04:47:37;;;;;;;10.80;3.92;;;;;;;16.38;57.98;101049.42;1713638;81;20999;-45
2021/06/04 04:50:05;;;;;;;5.42;3.15;;;;;;;16.42;58.48;101060.80;1717465;82;20964;-52
2021/06/04 04:52:32;;;;;;;6.75;3.10;;;;;;;16.46;58.52;101052.88;1710459;81;20971;-51
2021/06/04 04:54:59;;;;;;;6.25;3.45;;;;;;;16.49;58.54;101058.03;1713058;81;21574;-47
2021/06/04 04:57:27;;;;;;;6.40;4.10;;;;;;;16.52;58.59;101060.48;1710977;82;20979;-47
2021/06/04 04:59:53;;;;;;;8.13;3.87;;;;;;;16.55;58.91;101050.83;1702550;81;21040;-45
2021/06/04 05:02:20;;;;;;;5.15;3.40;;;;;;;16.61;59.32;101057.62;1722999;81;21439;-46
2021/06/04 05:04:47;;;;;;;4.55;3.47;;;;;;;16.69;57.81;101062.42;1715378;81;20979;-46
2021/06/04 05:07:14;;;;;;;8.68;3.27;;;;;;;16.74;56.87;101060.25;1714137;82;21007;-43
2021/06/04 05:09:42;;;;;;;6.25;3.47;;;;;;;16.80;56.64;101053.07;1743974;80;20960;-46
2021/06/04 05:12:09;;;;;;;3.70;2.70;;;;;;;16.88;57.25;101054.69;1725168;81;20952;-47
2021/06/04 05:14:36;;;;;;;8.30;3.87;;;;;;;16.95;56.75;101055.94;1717052;81;21597;-47
2021/06/04 05:17:04;;;;;;;4.42;3.30;;;;;;;17.02;56.15;101058.54;1721016;81;20999;-47
2021/06/04 05:19:31;;;;;;;4.92;3.52;;;;;;;17.08;56.44;101060.78;1725067;81;20984;-47
2021/06/04 05:21:59;;;;;;;5.70;3.62;;;;;;;17.17;56.80;101057.00;1716369;81;21029;-46
2021/06/04 05:24:27;;;;;;;7.00;3.08;;;;;;;17.24;55.93;101060.95;1715798;82;20970;-46
2021/06/04 05:26:53;;;;;;;6.53;3.40;;;;;;;17.28;55.94;101053.83;1722844;81;20979;-48
2021/06/04 05:29:20;;;;;;;4.65;2.80;;;;;;;17.36;56.04;101061.81;1722306;81;20972;-47
2021/06/04 05:31:48;;;;;;;3.52;3.05;;;;;;;17.42;56.47;101064.89;1718140;82;20965;-47
2021/06/04 05:34:15;;;;;;;6.53;3.22;;;;;;;17.49;55.48;101059.40;1718395;82;20979;-46
2021/06/04 05:36:42;;;;;;;8.20;3.62;;;;;;;17.53;55.31;101056.81;1706748;81;21412;-48
2021/06/04 05:39:22;;;;;;;4.53;2.72;;;;;;;17.61;55.59;101055.35;1720645;81;20967;-56
2021/06/04 05:41:55;;;;;;;5.45;3.40;;;;;;;17.67;55.90;101053.03;1718909;81;20971;-48
2021/06/04 05:44:24;;;;;;;5.78;3.37;;;;;;;17.74;55.20;101057.47;1718809;81;21002;-50
2021/06/04 05:46:54;;;;;;;6.75;3.37;;;;;;;17.82;55.10;101060.93;1741458;81;20998;-48
2021/06/04 05:49:22;;;;;;;6.03;4.15;;;;;;;17.86;55.57;101055.14;1733935;81;20964;-47
2021/06/04 05:51:49;;;;;;;8.53;3.42;;;;;;;17.91;55.10;101053.42;1723640;81;21011;-50
2021/06/04 05:54:17;;;;;;;3.77;3.20;;;;;;;17.95;54.83;101059.81;1717321;81;21008;-46
2021/06/04 05:56:44;;;;;;;4.83;3.62;;;;;;;17.99;54.84;101059.55;1747425;80;21038;-48
2021/06/04 05:59:12;;;;;;;4.45;3.52;;;;;;;18.01;55.30;101057.59;1747631;81;20955;-51
2021/06/04 06:01:39;;;;;;;3.98;3.37;;;;;;;18.02;54.77;101055.28;1748717;80;20927;-45
2021/06/04 06:04:08;;;;;;;5.70;3.20;;;;;;;18.02;54.90;101053.44;1753846;80;20964;-46
2021/06/04 06:06:34;;;;;;;4.92;3.02;;;;;;;18.03;55.12;101058.34;1744679;80;20952;-45
2021/06/04 06:09:02;;;;;;;4.75;2.90;;;;;;;18.04;55.35;101059.58;1747478;80;20969;-52
2021/06/04 06:11:30;;;;;;;5.90;3.45;;;;;;;18.09;55.56;101052.43;1748470;80;20980;-55
2021/06/04 06:13:58;;;;;;;4.95;3.12;;;;;;;18.13;54.85;101050.71;1737756;81;21011;-50
2021/06/04 06:16:28;;;;;;;6.15;3.45;;;;;;;18.19;54.88;101052.05;1746672;80;20983;-47
2021/06/04 06:18:56;;;;;;;5.92;2.98;;;;;;;18.23;53.97;101050.83;1731308;81;21426;-47
2021/06/04 06:21:23;;;;;;;4.80;3.10;;;;;;;18.31;54.25;101052.39;1747021;80;20963;-47
2021/06/04 06:23:49;;;;;;;6.60;3.33;;;;;;;18.39;53.26;101055.81;1710602;81;20943;-48
2021/06/04 06:26:22;;;;;;;6.37;2.92;;;;;;;18.44;53.31;101049.54;1712291;82;21008;-48
2021/06/04 06:28:48;;;;;;;5.70;3.45;;;;;;;18.49;52.84;101047.31;1718750;83;21000;-48
2021/06/04 06:31:20;;;;;;;4.60;3.10;;;;;;;18.54;52.82;101048.29;1733334;80;20967;-47
2021/06/04 06:33:48;;;;;;;4.95;3.52;;;;;;;18.59;51.66;101048.77;1749026;80;21586;-44
2021/06/04 06:36:19;;;;;;;6.95;3.20;;;;;;;18.62;51.74;101044.95;1742754;80;21509;-42
2021/06/04 06:38:48;;;;;;;4.55;2.90;;;;;;;18.67;51.86;101047.66;1747703;80;20952;-44
2021/06/04 06:41:15;;;;;;;4.28;2.83;;;;;;;18.73;52.11;101048.48;1715216;81;21030;-44
2021/06/04 06:43:46;;;;;;;6.65;3.30;;;;;;;18.78;51.15;101047.63;1748756;80;20960;-47
2021/06/04 06:46:11;;;;;;;5.80;3.12;;;;;;;18.84;52.19;101043.55;1748058;80;21533;-47
2021/06/04 06:48:39;;;;;;;8.80;3.25;;;;;;;18.90;51.26;101044.86;1745450;80;20992;-47
2021/06/04 06:51:08;;;;;;;3.95;3.10;;;;;;;18.95;50.80;101043.51;1739886;80;21023;-52
2021/06/04 06:53:39;;;;;;;4.53;2.80;;;;;;;18.99;50.13;101044.09;1731963;80;21307;-48
2021/06/04 06:56:08;;;;;;;5.92;3.02;;;;;;;19.04;50.20;101043.20;1744823;80;21048;-48
2021/06/04 06:58:35;;;;;;;6.55;2.98;;;;;;;19.11;50.22;101053.86;1739356;80;20999;-48
2021/06/04 07:01:04;;;;;;;5.97;2.83;;;;;;;19.15;49.85;101046.33;1719995;81;21437;-43
2021/06/04 07:03:33;;;;;;;9.48;3.00;;;;;;;19.19;50.19;101043.23;1718901;81;21010;-44
2021/06/04 07:06:12;;;;;;;4.22;2.80;;;;;;;19.29;50.73;101039.75;1724784;81;21006;-46
2021/06/04 07:08:38;;;;;;;10.88;3.67;;;;;;;19.37;49.35;101034.03;1745861;80;20951;-44
2021/06/04 07:11:07;;;;;;;7.28;2.92;;;;;;;19.45;47.45;101044.17;1748913;80;20950;-46
2021/06/04 07:13:34;;;;;;;4.12;3.10;;;;;;;19.48;46.97;101041.70;1731350;81;21028;-45
2021/06/04 07:16:05;;;;;;;3.70;2.47;;;;;;;19.50;47.09;101037.87;1724663;81;20971;-47
2021/06/04 07:18:31;;;;;;;6.25;2.75;;;;;;;19.51;47.25;101043.66;1734406;81;21451;-45
2021/06/04 07:20:58;;;;;;;4.15;2.50;;;;;;;19.53;46.92;101039.45;1729229;81;21446;-47
2021/06/04 07:23:26;;;;;;;4.08;2.50;;;;;;;19.56;47.75;101037.35;1731349;81;20983;-50
2021/06/04 07:25:53;;;;;;;5.58;2.42;;;;;;;19.55;46.71;101032.91;1728697;81;21624;-48
2021/06/04 07:28:23;;;;;;;5.83;3.35;;;;;;;19.52;45.70;101033.19;1729887;81;20992;-58
2021/06/04 07:30:51;;;;;;;4.22;2.33;;;;;;;19.51;46.38;101032.84;1708891;82;21003;-44
2021/06/04 07:33:26;;;;;;;4.65;2.20;;;;;;;19.51;45.78;101027.43;1710231;82;20960;-43
2021/06/04 07:35:53;;;;;;;6.70;2.92;;;;;;;19.52;44.97;101026.42;1725205;80;20967;-44
2021/06/04 07:38:21;;;;;;;4.20;2.20;;;;;;;19.51;45.02;101028.78;1731139;80;21032;-44
2021/06/04 07:40:47;;;;;;;6.60;3.12;;;;;;;19.51;44.75;101030.13;1743343;80;21033;-46
2021/06/04 07:43:18;;;;;;;5.15;2.20;;;;;;;19.51;44.52;101031.48;1738950;80;21466;-47
2021/06/04 07:45:45;;;;;;;6.37;2.05;;;;;;;19.52;45.94;101035.89;1752258;80;21443;-44
2021/06/04 07:48:13;;;;;;;6.08;2.40;;;;;;;19.56;46.30;101022.98;1737268;80;20994;-45
2021/06/04 07:50:41;;;;;;;5.40;2.22;;;;;;;19.56;46.01;101025.18;1734394;80;21544;-45
2021/06/04 07:53:10;;;;;;;5.10;2.40;;;;;;;19.60;46.23;101028.45;1747487;81;21408;-46
2021/06/04 07:55:38;;;;;;;3.60;2.15;;;;;;;19.61;46.04;101027.48;1715847;81;21080;-45
2021/06/04 07:58:05;;;;;;;4.83;2.85;;;;;;;19.62;45.91;101027.33;1714524;81;21046;-45
2021/06/04 08:00:34;;;;;;;5.40;2.72;;;;;;;19.63;45.74;101030.88;1733287;81;20994;-46
2021/06/04 08:03:03;;;;;;;8.90;3.15;;;;;;;19.64;46.46;101023.15;1735620;80;21347;-48
2021/06/04 08:05:31;;;;;;;5.08;2.50;;;;;;;19.69;46.75;101026.84;1709156;82;20959;-45
2021/06/04 08:07:59;;;;;;;3.47;2.40;;;;;;;19.73;46.86;101019.67;1710439;82;20976;-49
2021/06/04 08:10:26;;;;;;;4.50;2.52;;;;;;;19.77;45.49;101018.89;1713960;81;21573;-48
2021/06/04 08:12:52;;;;;;;4.25;2.37;;;;;;;19.76;44.78;101022.09;1716921;81;20995;-52
2021/06/04 08:15:25;;;;;;;6.35;2.67;;;;;;;19.78;44.69;101026.00;1747521;80;20974;-46
2021/06/04 08:17:52;;;;;;;3.75;2.25;;;;;;;19.79;45.39;101019.62;1755433;80;20957;-53
2021/06/04 08:20:22;;;;;;;5.25;2.85;;;;;;;19.80;43.89;101016.76;1748258;80;20991;-51
2021/06/04 08:22:52;;;;;;;3.42;1.80;;;;;;;19.84;45.16;101016.85;1733110;81;21019;-45
2021/06/04 08:25:19;;;;;;;5.55;1.60;;;;;;;19.89;42.85;101006.98;1729371;80;20964;-48
2021/06/04 08:27:46;;;;;;;5.97;1.77;;;;;;;19.96;41.98;101012.20;1733411;81;20991;-45
2021/06/04 08:30:13;;;;;;;2.87;1.45;;;;;;;20.06;39.40;101013.09;1745302;80;20963;-46
2021/06/04 08:32:41;;;;;;;4.83;1.52;;;;;;;20.16;39.05;101013.59;1742999;81;20952;-48
2021/06/04 08:35:10;;;;;;;2.83;1.77;;;;;;;20.22;39.55;101018.46;1741740;80;21058;-48
2021/06/04 08:37:37;;;;;;;5.35;1.55;;;;;;;20.26;40.37;101021.23;1739561;81;20991;-46
2021/06/04 08:40:15;;;;;;;4.08;1.77;;;;;;;20.25;39.33;101021.73;1741408;80;21562;-48
2021/06/04 08:43:17;;;;;;;3.55;1.62;;;;;;;20.22;39.64;101014.41;1748794;80;21459;-47
2021/06/04 08:45:53;;;;;;;7.05;3.83;;;;;;;20.18;40.15;101015.66;1740220;81;20987;-51
2021/06/04 08:48:28;;;;;;;6.83;2.00;;;;;;;20.15;39.78;101016.80;1725021;81;20986;-50
2021/06/04 08:51:22;;;;;;;5.62;1.87;;;;;;;20.15;39.77;101014.59;1703105;82;21018;-54
2021/06/04 08:54:00;;;;;;;3.40;1.70;;;;;;;20.17;39.82;101020.73;1720594;82;21039;-53
2021/06/04 08:56:50;;;;;;;4.53;1.70;;;;;;;20.19;38.99;101014.19;1740504;80;21650;-49
2021/06/04 08:59:18;;;;;;;5.80;1.90;;;;;;;20.21;38.90;101012.67;1751177;80;20987;-47
2021/06/04 09:02:08;;;;;;;4.65;1.60;;;;;;;20.22;38.68;101007.13;1718542;80;20997;-56
2021/06/04 09:04:47;;;;;;;3.70;1.60;;;;;;;20.21;38.77;101006.78;1750700;80;21340;-48
2021/06/04 09:07:27;;;;;;;5.62;1.45;;;;;;;20.22;38.16;101014.41;1749545;80;20967;-54
2021/06/04 09:10:05;;;;;;;4.83;1.50;;;;;;;20.19;37.82;101014.69;1684628;83;20972;-45
2021/06/04 09:12:51;;;;;;;3.80;1.60;;;;;;;20.18;37.87;101008.89;1691879;82;21049;-44
2021/06/04 09:15:23;;;;;;;6.67;1.42;;;;;;;20.20;38.32;101008.27;1738677;80;21005;-44
2021/06/04 09:17:58;;;;;;;2.72;1.45;;;;;;;20.30;38.54;101005.08;1734703;80;21516;-46
2021/06/04 09:20:38;;;;;;;3.98;1.50;;;;;;;20.38;37.35;101007.92;1733091;80;20980;-48
2021/06/04 09:23:08;;;;;;;7.28;1.40;;;;;;;20.40;37.60;101012.72;1755027;80;21741;-54
2021/06/04 09:25:35;;;;;;;8.08;1.90;;;;;;;20.39;37.30;101008.81;1710413;82;21545;-45
2021/06/04 09:28:13;;;;;;;4.33;1.30;;;;;;;20.35;37.80;101009.57;1721800;81;21451;-51
2021/06/04 09:30:48;;;;;;;5.47;1.60;;;;;;;20.34;38.08;101006.52;1719433;82;21028;-46
2021/06/04 09:33:33;;;;;;;6.00;1.37;;;;;;;20.36;37.63;101010.42;1718279;81;21019;-43
2021/06/04 09:36:13;;;;;;;3.08;1.67;;;;;;;20.36;36.86;100994.17;1714345;81;20972;-44
2021/06/04 09:38:57;;;;;;;6.60;1.80;;;;;;;20.41;37.43;100993.25;1702402;82;21008;-44
2021/06/04 09:41:31;;;;;;;3.35;1.47;;;;;;;20.51;38.55;100994.99;1705948;81;20968;-44
2021/06/04 09:44:19;;;;;;;2.42;1.17;;;;;;;20.60;37.31;101000.58;1712013;82;20956;-43
2021/06/04 09:46:54;;;;;;;4.53;1.27;;;;;;;20.62;36.88;100995.38;1710718;81;21011;-42
2021/06/04 09:49:45;;;;;;;3.83;1.20;;;;;;;20.64;36.98;100997.95;1700059;82;21000;-44
2021/06/04 09:52:32;;;;;;;;;;;;;;;20.64;37.41;101002.87;1712708;81;21050;-41
2021/06/04 09:55:25;;;;;;;3.20;1.45;;;;;;;20.60;35.91;101003.29;1747368;80;20090;-46
2021/06/04 09:58:09;;;;;;;4.40;1.50;;;;;;;20.56;36.94;101001.34;1746043;80;20981;-47
2021/06/04 10:00:53;;;;;;;5.87;1.80;;;;;;;20.58;37.39;100995.80;1746900;80;21062;-44
2021/06/04 10:03:44;;;;;;;5.40;1.25;;;;;;;20.66;36.76;100987.80;1748253;80;21454;-46
2021/06/04 10:06:20;;;;;;;;;;;;;;;20.76;36.99;100990.01;1744580;81;21791;-48
2021/06/04 10:08:59;;;;;;;4.17;1.10;;;;;;;20.88;36.89;100986.16;1741369;80;20122;-52
2021/06/04 10:11:31;;;;;;;2.45;1.50;;;;;;;21.01;36.00;100979.58;1738690;80;21525;-50
2021/06/04 10:14:15;;;;;;;2.85;1.52;;;;;;;21.09;36.98;100987.83;1735896;81;21724;-48
2021/06/04 10:19:35;;;;;;;4.10;1.20;;;;;;;21.02;34.88;100989.44;1742446;80;20978;-44
2021/06/04 10:22:27;;;;;;;5.33;1.57;;;;;;;21.00;35.43;100995.50;1734211;80;20992;-44
2021/06/04 10:25:09;;;;;;;1.67;1.17;;;;;;;21.01;35.25;100989.91;1728012;81;21821;-50
2021/06/04 10:27:43;;;;;;;1.47;1.12;;;;;;;21.06;33.53;100982.20;1736773;80;20975;-46
2021/06/04 10:30:21;;;;;;;2.37;1.40;;;;;;;21.13;34.37;100986.04;1738540;80;20960;-45
2021/06/04 10:32:54;;;;;;;3.58;1.77;;;;;;;21.21;33.76;100977.68;1736083;81;21002;-44
2021/06/04 10:35:26;;;;;;;2.75;1.12;;;;;;;21.29;34.43;100965.11;1711894;81;21010;-45
2021/06/04 10:38:34;;;;;;;2.42;1.47;;;;;;;21.37;35.51;100965.73;1731004;80;21330;-49
2021/06/04 10:41:12;;;;;;;4.92;1.70;;;;;;;21.45;35.02;100968.58;1742844;80;20990;-44
2021/06/04 10:44:13;;;;;;;3.05;1.22;;;;;;;21.51;34.12;100963.90;1734528;80;21551;-44
2021/06/04 10:46:52;;;;;;;7.70;2.12;;;;;;;21.55;34.45;100969.90;1746484;80;20975;-44
2021/06/04 10:49:57;;;;;;;5.03;1.05;;;;;;;21.60;33.25;100963.52;1734830;81;21848;-46
2021/06/04 10:52:53;;;;;;;4.40;2.20;;;;;;;21.65;32.71;100967.15;1716910;81;20996;-49
2021/06/04 10:55:40;;;;;;;5.58;1.75;;;;;;;21.69;33.98;100965.31;1713021;82;21105;-46
2021/06/04 10:58:46;;;;;;;1.72;1.17;;;;;;;21.76;33.82;100960.15;1686152;82;21094;-41
2021/06/04 11:01:18;;;;;;;3.62;1.95;;;;;;;21.85;34.02;100960.61;1739430;80;21018;-43
2021/06/04 11:04:06;;;;;;;1.62;1.02;;;;;;;21.97;33.45;100961.23;1748165;80;21591;-44
2021/06/04 11:07:01;;;;;;;7.28;1.70;;;;;;;22.03;32.91;100960.13;1744584;80;20962;-45
2021/06/04 11:10:08;;;;;;;4.25;1.35;;;;;;;22.09;32.99;100960.53;1741467;80;21067;-45
2021/06/04 11:12:52;;;;;;;3.00;1.47;;;;;;;22.14;33.06;100960.41;1743138;80;21499;-43
2021/06/04 11:15:57;;;;;;;5.45;1.42;;;;;;;22.21;33.71;100961.55;1694315;82;20941;-47
2021/06/04 11:18:35;;;;;;;4.53;1.22;;;;;;;22.24;33.11;100959.88;1748591;81;20946;-45
2021/06/04 11:21:03;;;;;;;3.35;1.17;;;;;;;22.25;32.73;100964.31;1733571;80;21033;-45
2021/06/04 11:23:44;;;;;;;5.47;2.40;;;;;;;22.23;32.65;100961.41;1737396;80;21003;-44
2021/06/04 11:26:20;;;;;;;3.87;1.55;;;;;;;22.19;31.60;100954.05;1702015;81;21887;-46
2021/06/04 11:29:07;;;;;;;3.70;1.12;;;;;;;22.23;32.38;100958.69;1709225;81;21461;-45
2021/06/04 11:32:02;;;;;;;4.80;1.47;;;;;;;22.28;31.36;100955.01;1690481;82;21016;-45
2021/06/04 11:34:42;;;;;;;6.12;1.52;;;;;;;22.32;32.28;100967.76;1717496;81;21015;-55
2021/06/04 11:37:52;;;;;;;3.05;1.42;;;;;;;22.28;32.94;100962.30;1714966;81;20987;-56
2021/06/04 11:40:34;;;;;;;3.52;1.27;;;;;;;22.18;32.68;100961.83;1719809;81;21019;-47
2021/06/04 11:43:29;;;;;;;4.12;1.35;;;;;;;22.06;32.53;100958.98;1724380;81;20987;-48
2021/06/04 11:46:18;;;;;;;3.83;1.40;;;;;;;22.01;33.33;100961.30;1715728;81;20987;-48
2021/06/04 11:48:59;;;;;;;4.78;1.75;;;;;;;22.06;32.94;100956.77;1718056;81;21424;-49
2021/06/04 11:51:33;;;;;;;5.10;1.20;;;;;;;22.15;31.43;100954.47;1715730;81;21047;-53
2021/06/04 11:54:21;;;;;;;2.62;1.60;;;;;;;;;;1717900;81;21362;-46
2021/06/04 11:57:08;;;;;;;5.62;1.60;;;;;;;22.26;32.75;100954.30;1714775;82;21020;-48
2021/06/04 12:00:01;;;;;;;4.58;1.42;;;;;;;22.28;31.70;100953.65;1701146;81;21031;-48
2021/06/04 12:02:44;;;;;;;4.65;1.70;;;;;;;22.24;32.27;100954.44;1632501;85;21055;-46
2021/06/04 12:05:25;;;;;;;4.15;1.67;;;;;;;22.23;32.82;100952.75;1636593;85;20988;-44
2021/06/04 12:08:28;;;;;;;2.98;1.00;;;;;;;22.22;33.47;100951.53;1634166;85;20988;-48
2021/06/04 12:11:20;;;;;;;4.72;1.47;;;;;;;22.22;32.35;100952.89;1693378;83;21025;-47